createdAt,value
2019-02-28T00:00:55.736Z,21.30
2019-02-28T00:03:26.138Z,19.80
2019-02-28T00:05:54.238Z,20.00
2019-02-28T00:08:22.609Z,17.57
2019-02-28T00:10:50.995Z,20.17
2019-02-28T00:13:21.698Z,19.40
2019-02-28T00:15:49.650Z,20.77
2019-02-28T00:18:18.036Z,19.53
2019-02-28T00:20:46.434Z,21.47
2019-02-28T00:23:14.825Z,20.93
2019-02-28T00:25:43.210Z,22.00
2019-02-28T00:28:11.608Z,20.87
2019-02-28T00:30:40.749Z,19.93
2019-02-28T00:33:09.951Z,20.20
2019-02-28T00:35:38.339Z,20.33
2019-02-28T00:38:06.717Z,23.40
2019-02-28T00:40:35.104Z,22.47
2019-02-28T00:43:03.555Z,22.17
2019-02-28T00:45:36.301Z,22.20
2019-02-28T00:48:02.047Z,22.50
2019-02-28T00:50:30.448Z,22.43
2019-02-28T00:52:58.828Z,22.57
2019-02-28T00:55:27.204Z,23.97
2019-02-28T00:57:56.030Z,23.77
2019-02-28T01:00:24.522Z,22.87
2019-02-28T01:02:53.691Z,23.70
2019-02-28T01:05:22.263Z,22.23
2019-02-28T01:07:50.723Z,23.30
2019-02-28T01:10:19.171Z,23.70
2019-02-28T01:12:53.122Z,26.27
2019-02-28T01:15:18.132Z,25.37
2019-02-28T01:17:46.511Z,23.83
2019-02-28T01:20:16.411Z,25.80
2019-02-28T01:22:45.007Z,26.50
2019-02-28T01:25:19.450Z,24.07
2019-02-28T01:27:47.896Z,25.83
2019-02-28T01:30:16.859Z,24.20
2019-02-28T01:32:49.736Z,24.00
2019-02-28T01:35:15.363Z,25.27
2019-02-28T01:37:43.757Z,25.73
2019-02-28T01:40:14.389Z,24.57
2019-02-28T01:42:42.780Z,25.50
2019-02-28T01:45:12.504Z,24.00
2019-02-28T01:47:41.120Z,25.90
2019-02-28T01:50:11.055Z,27.00
2019-02-28T01:52:44.457Z,22.70
2019-02-28T01:55:11.217Z,25.47
2019-02-28T01:57:44.054Z,25.80
2019-02-28T02:00:15.007Z,26.17
2019-02-28T02:02:43.637Z,26.30
2019-02-28T02:05:12.080Z,26.03
2019-02-28T02:07:40.535Z,24.47
2019-02-28T02:10:13.703Z,26.10
2019-02-28T02:12:42.170Z,26.57
2019-02-28T02:15:11.795Z,26.03
2019-02-28T02:17:40.172Z,25.40
2019-02-28T02:20:11.208Z,28.03
2019-02-28T02:22:40.713Z,27.23
2019-02-28T02:25:10.345Z,25.60
2019-02-28T02:27:38.796Z,26.67
2019-02-28T02:30:16.322Z,26.90
2019-02-28T02:32:44.939Z,27.17
2019-02-28T02:35:13.372Z,26.40
2019-02-28T02:37:41.770Z,27.03
2019-02-28T02:40:12.902Z,27.47
2019-02-28T02:42:47.588Z,27.40
2019-02-28T02:45:13.504Z,27.77
2019-02-28T02:47:41.891Z,26.80
2019-02-28T02:50:12.431Z,26.87
2019-02-28T02:52:40.812Z,28.43
2019-02-28T02:55:09.348Z,28.17
2019-02-28T02:57:37.731Z,26.43
2019-02-28T03:00:13.713Z,23.33
2019-02-28T03:02:41.978Z,27.93
2019-02-28T03:05:10.496Z,28.60
2019-02-28T03:07:38.891Z,26.40
2019-02-28T03:10:10.013Z,28.33
2019-02-28T03:12:38.643Z,28.70
2019-02-28T03:15:13.024Z,28.40
2019-02-28T03:17:46.453Z,28.77
2019-02-28T03:20:13.372Z,27.07
2019-02-28T03:22:41.758Z,27.20
2019-02-28T03:25:15.337Z,27.97
2019-02-28T03:27:43.721Z,26.37
2019-02-28T03:30:26.379Z,28.53
2019-02-28T03:32:46.940Z,25.90
2019-02-28T03:35:15.339Z,27.53
2019-02-28T03:37:43.792Z,30.77
2019-02-28T03:40:13.305Z,31.97
2019-02-28T03:42:41.695Z,28.93
2019-02-28T03:45:17.162Z,33.37
2019-02-28T03:47:45.572Z,33.10
2019-02-28T03:50:14.084Z,33.63
2019-02-28T03:52:44.321Z,33.57
2019-02-28T03:55:16.165Z,32.57
2019-02-28T03:57:44.553Z,35.20
2019-02-28T04:00:16.063Z,31.40
2019-02-28T04:02:44.578Z,31.00
2019-02-28T04:05:12.964Z,28.80
2019-02-28T04:07:41.355Z,30.57
2019-02-28T04:10:11.894Z,32.10
2019-02-28T04:12:45.028Z,36.03
2019-02-28T04:15:17.685Z,32.77
2019-02-28T04:17:46.062Z,30.73
2019-02-28T04:20:14.442Z,30.87
2019-02-28T04:22:42.842Z,32.27
2019-02-28T04:25:11.653Z,33.50
2019-02-28T04:27:41.572Z,34.93
2019-02-28T04:30:14.473Z,36.53
2019-02-28T04:32:43.173Z,35.47
2019-02-28T04:35:12.189Z,33.67
2019-02-28T04:37:44.974Z,33.43
2019-02-28T04:40:12.127Z,26.50
2019-02-28T04:42:40.503Z,31.60
2019-02-28T04:45:14.877Z,31.17
2019-02-28T04:47:43.251Z,32.90
2019-02-28T04:50:13.248Z,32.40
2019-02-28T04:52:46.835Z,32.43
2019-02-28T04:55:12.095Z,34.13
2019-02-28T04:57:40.473Z,32.20
2019-02-28T05:00:14.687Z,32.40
2019-02-28T05:02:43.075Z,34.07
2019-02-28T05:05:12.644Z,32.63
2019-02-28T05:07:41.920Z,30.73
2019-02-28T05:10:11.244Z,31.97
2019-02-28T05:12:40.851Z,29.33
2019-02-28T05:15:11.627Z,32.47
2019-02-28T05:17:40.005Z,31.30
2019-02-28T05:20:11.026Z,31.33
2019-02-28T05:22:40.368Z,29.13
2019-02-28T05:25:17.424Z,21.87
2019-02-28T05:27:42.225Z,30.33
2019-02-28T05:30:18.027Z,31.57
2019-02-28T05:32:44.923Z,29.77
2019-02-28T05:35:13.300Z,31.20
2019-02-28T05:37:46.931Z,32.17
2019-02-28T05:40:13.632Z,32.00
2019-02-28T05:42:42.050Z,31.77
2019-02-28T05:45:14.198Z,34.67
2019-02-28T05:47:46.427Z,30.80
2019-02-28T05:50:15.483Z,29.20
2019-02-28T05:52:42.324Z,30.87
2019-02-28T05:55:10.941Z,29.83
2019-02-28T05:57:43.346Z,30.00
2019-02-28T06:00:15.818Z,31.67
2019-02-28T06:02:44.280Z,28.13
2019-02-28T06:05:12.823Z,29.83
2019-02-28T06:07:41.596Z,29.33
2019-02-28T06:10:14.279Z,29.47
2019-02-28T06:12:43.663Z,27.10
2019-02-28T06:15:15.041Z,26.57
2019-02-28T06:17:43.517Z,31.20
2019-02-28T06:20:16.318Z,29.53
2019-02-28T06:22:42.841Z,29.67
2019-02-28T06:25:12.756Z,31.40
2019-02-28T06:27:42.315Z,26.30
2019-02-28T06:30:18.107Z,27.67
2019-02-28T06:32:46.503Z,30.13
2019-02-28T06:35:17.659Z,28.33
2019-02-28T06:37:45.037Z,28.07
2019-02-28T06:40:15.377Z,27.67
2019-02-28T06:42:46.677Z,29.47
2019-02-28T06:45:18.366Z,27.13
2019-02-28T06:47:49.655Z,27.37
2019-02-28T06:50:17.024Z,33.50
2019-02-28T06:52:45.423Z,31.47
2019-02-28T06:55:22.009Z,32.33
2019-02-28T06:57:50.400Z,30.03
2019-02-28T07:00:18.779Z,30.97
2019-02-28T07:02:47.165Z,32.10
2019-02-28T07:05:15.628Z,28.87
2019-02-28T07:07:45.840Z,31.33
2019-02-28T07:10:15.855Z,30.10
2019-02-28T07:12:44.263Z,32.30
2019-02-28T07:15:13.651Z,31.97
2019-02-28T07:17:42.590Z,29.37
2019-02-28T07:20:15.003Z,29.53
2019-02-28T07:22:43.391Z,30.03
2019-02-28T07:25:12.621Z,29.30
2019-02-28T07:27:42.219Z,25.77
2019-02-28T07:30:18.729Z,28.80
2019-02-28T07:32:45.563Z,27.17
2019-02-28T07:35:13.964Z,24.90
2019-02-28T07:37:42.352Z,26.37
2019-02-28T07:40:16.123Z,26.80
2019-02-28T07:42:43.182Z,27.87
2019-02-28T07:45:13.305Z,24.23
2019-02-28T07:47:41.684Z,27.43
2019-02-28T07:50:12.119Z,26.03
2019-02-28T07:52:40.516Z,24.43
2019-02-28T07:55:17.877Z,25.43
2019-02-28T07:57:50.938Z,25.93
2019-02-28T08:00:22.294Z,25.93
2019-02-28T08:02:50.763Z,22.07
2019-02-28T08:05:19.380Z,22.50
2019-02-28T08:07:51.946Z,23.27
2019-02-28T08:10:20.883Z,21.27
2019-02-28T08:12:49.273Z,24.43
2019-02-28T08:15:23.348Z,24.00
2019-02-28T08:17:51.780Z,23.00
2019-02-28T08:20:20.732Z,21.17
2019-02-28T08:22:49.372Z,24.40
2019-02-28T08:25:17.763Z,24.17
2019-02-28T08:27:46.151Z,24.80
2019-02-28T08:30:20.673Z,24.93
2019-02-28T08:32:49.257Z,22.10
2019-02-28T08:35:17.644Z,23.40
2019-02-28T08:37:46.049Z,23.00
2019-02-28T08:40:19.678Z,25.23
2019-02-28T08:42:49.898Z,24.73
2019-02-28T08:45:18.183Z,26.47
2019-02-28T08:47:46.563Z,24.93
2019-02-28T08:50:23.451Z,23.60
2019-02-28T08:52:52.934Z,25.80
2019-02-28T08:55:28.361Z,28.03
2019-02-28T08:57:55.639Z,25.67
2019-02-28T09:00:22.896Z,23.53
2019-02-28T09:02:52.906Z,25.43
2019-02-28T09:05:25.462Z,27.33
2019-02-28T09:07:52.028Z,24.77
2019-02-28T09:10:25.513Z,24.33
2019-02-28T09:12:53.899Z,25.27
2019-02-28T09:15:22.452Z,24.90
2019-02-28T09:17:50.915Z,24.70
2019-02-28T09:20:19.368Z,25.37
2019-02-28T09:22:47.754Z,22.33
2019-02-28T09:25:22.029Z,25.17
2019-02-28T09:27:48.961Z,27.53
2019-02-28T09:30:29.720Z,26.13
2019-02-28T09:32:59.095Z,23.50
2019-02-28T09:35:27.487Z,26.27
2019-02-28T09:37:55.872Z,24.43
2019-02-28T09:40:43.603Z,24.30
2019-02-28T09:43:11.988Z,28.20
2019-02-28T09:45:41.189Z,25.83
2019-02-28T09:48:09.659Z,24.73
2019-02-28T09:50:38.037Z,27.23
2019-02-28T09:53:06.427Z,20.20
2019-02-28T09:55:35.564Z,22.37
2019-02-28T09:58:04.157Z,24.00
2019-02-28T10:00:32.676Z,22.60
2019-02-28T10:03:01.076Z,20.63
2019-02-28T10:05:29.514Z,16.27
2019-02-28T10:08:01.497Z,23.37
2019-02-28T10:10:29.588Z,14.23
2019-02-28T10:12:58.057Z,17.83
2019-02-28T10:15:26.497Z,20.60
2019-02-28T10:17:54.891Z,17.50
2019-02-28T10:20:28.246Z,18.83
2019-02-28T10:22:56.632Z,18.30
2019-02-28T10:25:25.097Z,16.20
2019-02-28T10:27:54.606Z,20.93
2019-02-28T10:30:31.569Z,17.17
2019-02-28T10:32:57.164Z,22.87
2019-02-28T10:35:25.543Z,23.17
2019-02-28T10:37:57.408Z,13.17
2019-02-28T10:40:27.540Z,23.17
2019-02-28T10:42:55.928Z,28.50
2019-02-28T10:45:25.064Z,27.20
2019-02-28T10:47:53.444Z,26.87
2019-02-28T10:50:32.528Z,21.10
2019-02-28T10:53:04.067Z,23.73
2019-02-28T10:55:29.408Z,24.93
2019-02-28T10:57:57.811Z,18.97
2019-02-28T11:00:32.853Z,24.23
2019-02-28T11:03:02.166Z,18.40
2019-02-28T11:05:32.388Z,19.13
2019-02-28T11:08:01.920Z,20.60
2019-02-28T11:10:36.635Z,25.83
2019-02-28T11:13:07.166Z,19.97
2019-02-28T11:15:35.790Z,15.27
2019-02-28T11:18:08.593Z,18.57
2019-02-28T11:20:34.664Z,20.13
2019-02-28T11:23:03.579Z,19.60
2019-02-28T11:25:34.744Z,20.17
2019-02-28T11:28:02.408Z,19.43
2019-02-28T11:30:32.047Z,14.23
2019-02-28T11:33:04.344Z,21.20
2019-02-28T11:35:30.992Z,22.10
2019-02-28T11:37:59.459Z,12.90
2019-02-28T11:40:30.939Z,19.30
2019-02-28T11:43:02.747Z,18.73
2019-02-28T11:45:36.931Z,16.87
2019-02-28T11:48:07.567Z,19.80
2019-02-28T11:50:41.362Z,20.83
2019-02-28T11:53:06.163Z,18.83
2019-02-28T11:55:34.559Z,17.70
2019-02-28T11:58:02.944Z,20.30
2019-02-28T12:00:35.846Z,19.83
2019-02-28T12:03:05.621Z,21.07
2019-02-28T12:05:34.263Z,20.50
2019-02-28T12:08:02.665Z,23.57
2019-02-28T12:10:31.125Z,18.93
2019-02-28T12:12:59.519Z,24.43
2019-02-28T12:15:30.612Z,21.47
2019-02-28T12:18:03.635Z,24.60
2019-02-28T12:20:29.116Z,19.43
2019-02-28T12:22:57.516Z,26.90
2019-02-28T12:25:26.307Z,24.70
2019-02-28T12:27:55.283Z,23.07
2019-02-28T12:30:29.431Z,22.63
2019-02-28T12:32:57.832Z,20.47
2019-02-28T12:35:26.248Z,28.70
2019-02-28T12:37:55.040Z,21.87
2019-02-28T12:40:31.816Z,23.73
2019-02-28T12:43:00.200Z,21.93
2019-02-28T12:45:31.308Z,25.43
2019-02-28T12:47:59.697Z,25.20
2019-02-28T12:50:29.445Z,27.50
2019-02-28T12:52:58.340Z,20.43
2019-02-28T12:55:26.735Z,18.53
2019-02-28T12:57:57.737Z,20.77
2019-02-28T13:00:28.311Z,18.20
2019-02-28T13:02:56.698Z,17.47
2019-02-28T13:05:25.145Z,20.30
2019-02-28T13:07:53.681Z,19.67
2019-02-28T13:10:26.867Z,24.37
2019-02-28T13:12:53.275Z,19.53
2019-02-28T13:15:22.439Z,21.50
2019-02-28T13:17:50.803Z,16.33
2019-02-28T13:20:34.179Z,19.07
2019-02-28T13:23:03.271Z,15.03
2019-02-28T13:25:31.732Z,15.47
2019-02-28T13:28:00.110Z,12.80
2019-02-28T13:30:28.952Z,12.00
2019-02-28T13:32:57.345Z,12.93
2019-02-28T13:35:28.437Z,10.67
2019-02-28T13:37:56.891Z,11.07
2019-02-28T13:40:25.279Z,10.63
2019-02-28T13:42:53.679Z,7.70
2019-02-28T13:45:23.823Z,10.37
2019-02-28T13:47:52.438Z,8.07
2019-02-28T13:50:32.801Z,7.87
2019-02-28T13:53:03.623Z,8.90
2019-02-28T13:55:31.580Z,11.40
2019-02-28T13:58:00.147Z,9.27
2019-02-28T14:00:30.734Z,9.13
2019-02-28T14:03:10.654Z,8.23
2019-02-28T14:05:41.455Z,8.37
2019-02-28T14:08:11.297Z,11.07
2019-02-28T14:10:39.670Z,7.73
2019-02-28T14:13:08.137Z,10.80
2019-02-28T14:15:42.215Z,10.10
2019-02-28T14:18:11.636Z,9.03
2019-02-28T14:20:40.141Z,10.20
2019-02-28T14:23:08.697Z,7.33
2019-02-28T14:25:39.708Z,11.03
2019-02-28T14:28:07.189Z,7.40
2019-02-28T14:30:35.586Z,9.47
2019-02-28T14:33:04.236Z,5.83
2019-02-28T14:35:35.474Z,6.20
2019-02-28T14:38:02.812Z,5.80
2019-02-28T14:40:31.197Z,9.50
2019-02-28T14:42:59.656Z,8.90
2019-02-28T14:45:43.912Z,9.80
2019-02-28T14:48:12.542Z,9.33
2019-02-28T14:50:40.918Z,6.87
2019-02-28T14:53:13.335Z,7.43
2019-02-28T14:55:39.421Z,8.17
2019-02-28T14:58:07.801Z,8.37
2019-02-28T15:00:38.970Z,7.07
2019-02-28T15:03:06.443Z,7.90
2019-02-28T15:05:39.700Z,5.50
2019-02-28T15:08:08.081Z,7.17
2019-02-28T15:10:36.538Z,8.33
2019-02-28T15:13:05.383Z,6.97
2019-02-28T15:15:36.112Z,4.57
2019-02-28T15:18:04.709Z,5.47
2019-02-28T15:20:33.372Z,5.27
2019-02-28T15:23:01.865Z,7.03
2019-02-28T15:25:30.786Z,5.77
2019-02-28T15:27:59.167Z,5.03
2019-02-28T15:30:34.843Z,5.87
2019-02-28T15:33:03.431Z,4.27
2019-02-28T15:35:31.808Z,4.07
2019-02-28T15:38:00.189Z,3.90
2019-02-28T15:40:33.914Z,3.17
2019-02-28T15:43:02.312Z,4.10
2019-02-28T15:45:30.685Z,3.30
2019-02-28T15:48:00.388Z,4.17
2019-02-28T15:50:28.996Z,5.43
2019-02-28T15:52:57.932Z,4.40
2019-02-28T15:55:26.648Z,3.50
2019-02-28T15:57:55.039Z,4.47
2019-02-28T16:00:28.731Z,5.40
2019-02-28T16:02:57.235Z,4.43
2019-02-28T16:05:25.767Z,2.93
2019-02-28T16:07:55.637Z,5.30
2019-02-28T16:10:31.839Z,4.87
2019-02-28T16:13:00.116Z,4.03
2019-02-28T16:15:28.573Z,3.27
2019-02-28T16:17:56.982Z,3.70
2019-02-28T16:20:28.533Z,2.77
2019-02-28T16:22:55.540Z,2.90
2019-02-28T16:25:32.036Z,2.90
2019-02-28T16:28:00.583Z,2.80
2019-02-28T16:30:32.107Z,4.17
2019-02-28T16:32:59.145Z,5.73
2019-02-28T16:35:28.936Z,5.63
2019-02-28T16:37:57.612Z,5.70
2019-02-28T16:40:28.313Z,5.10
2019-02-28T16:42:56.703Z,6.10
2019-02-28T16:45:43.271Z,7.00
2019-02-28T16:48:11.655Z,5.40
2019-02-28T16:50:40.037Z,6.83
2019-02-28T16:53:14.776Z,6.70
2019-02-28T16:55:38.599Z,7.33
2019-02-28T16:58:06.995Z,6.57
2019-02-28T17:00:35.384Z,8.07
2019-02-28T17:03:07.402Z,7.13
2019-02-28T17:05:34.672Z,8.57
2019-02-28T17:08:03.120Z,6.73
2019-02-28T17:10:33.052Z,7.67
2019-02-28T17:13:12.267Z,7.03
2019-02-28T17:15:45.262Z,8.03
2019-02-28T17:18:18.527Z,6.07
2019-02-28T17:20:48.435Z,5.30
2019-02-28T17:23:18.599Z,5.17
2019-02-28T17:25:46.945Z,4.67
2019-02-28T17:28:16.977Z,2.60
2019-02-28T17:31:12.587Z,3.87
2019-02-28T17:33:43.440Z,4.27
2019-02-28T17:36:12.494Z,4.97
2019-02-28T17:38:41.107Z,5.50
2019-02-28T17:41:11.120Z,4.93
2019-02-28T17:43:40.028Z,5.10
2019-02-28T17:46:11.727Z,4.13
2019-02-28T17:49:05.720Z,3.87
2019-02-28T17:51:37.208Z,3.90
2019-02-28T17:54:21.047Z,3.40
2019-02-28T17:56:53.449Z,4.30
2019-02-28T17:59:42.070Z,4.27
2019-02-28T18:02:48.700Z,5.10
2019-02-28T18:05:33.773Z,3.03
2019-02-28T18:08:04.603Z,3.53
2019-02-28T18:11:11.125Z,4.33
2019-02-28T18:13:52.168Z,6.17
2019-02-28T18:16:39.824Z,4.27
2019-02-28T18:19:47.848Z,6.17
2019-02-28T18:22:19.480Z,10.07
2019-02-28T18:24:57.112Z,4.00
2019-02-28T18:27:43.715Z,6.63
2019-02-28T18:30:42.728Z,6.07
2019-02-28T18:33:11.202Z,6.37
2019-02-28T18:35:39.583Z,9.40
2019-02-28T18:38:07.984Z,7.43
2019-02-28T18:40:36.361Z,9.80
2019-02-28T18:43:04.889Z,10.67
2019-02-28T18:45:33.276Z,11.23
2019-02-28T18:48:01.671Z,12.30
2019-02-28T18:50:30.056Z,9.97
2019-02-28T18:52:58.439Z,8.83
2019-02-28T18:55:34.665Z,11.83
2019-02-28T18:57:56.952Z,9.57
2019-02-28T19:00:25.335Z,10.43
2019-02-28T19:02:53.728Z,9.20
2019-02-28T19:05:22.120Z,9.33
2019-02-28T19:07:50.518Z,6.07
2019-02-28T19:10:18.935Z,6.57
2019-02-28T19:12:47.373Z,4.73
2019-02-28T19:15:16.760Z,6.27
2019-02-28T19:17:45.137Z,6.00
2019-02-28T19:20:13.599Z,6.57
2019-02-28T19:22:42.041Z,6.20
2019-02-28T19:25:11.785Z,8.57
2019-02-28T19:27:40.168Z,9.70
2019-02-28T19:30:14.012Z,7.70
2019-02-28T19:32:42.456Z,8.10
2019-02-28T19:35:10.972Z,8.13
2019-02-28T19:37:39.359Z,9.27
2019-02-28T19:40:12.637Z,7.97
2019-02-28T19:42:41.032Z,7.63
2019-02-28T19:45:12.730Z,8.37
2019-02-28T19:47:41.167Z,9.40
2019-02-28T19:50:11.100Z,10.60
2019-02-28T19:52:39.476Z,10.37
2019-02-28T19:55:15.533Z,12.23
2019-02-28T19:57:43.903Z,13.03
2019-02-28T20:00:17.416Z,13.60
2019-02-28T20:02:45.796Z,15.27
2019-02-28T20:05:14.228Z,13.97
2019-02-28T20:07:42.795Z,12.57
2019-02-28T20:10:16.403Z,16.27
2019-02-28T20:12:44.856Z,13.03
2019-02-28T20:15:15.173Z,13.17
2019-02-28T20:17:43.632Z,12.23
2019-02-28T20:20:14.328Z,13.80
2019-02-28T20:22:42.729Z,7.93
2019-02-28T20:25:13.057Z,6.00
2019-02-28T20:27:41.449Z,12.80
2019-02-28T20:30:20.667Z,8.60
2019-02-28T20:32:49.144Z,8.33
2019-02-28T20:35:26.234Z,9.33
2019-02-28T20:37:47.699Z,10.30
2019-02-28T20:40:21.934Z,9.23
2019-02-28T20:42:50.304Z,12.03
2019-02-28T20:45:18.686Z,10.93
2019-02-28T20:47:47.096Z,11.10
2019-02-28T20:50:21.364Z,8.00
2019-02-28T20:52:49.743Z,8.57
2019-02-28T20:55:18.132Z,8.87
2019-02-28T20:57:46.538Z,8.53
2019-02-28T21:00:18.418Z,12.37
2019-02-28T21:02:46.797Z,9.63
2019-02-28T21:05:15.256Z,11.57
2019-02-28T21:07:43.704Z,11.53
2019-02-28T21:10:12.160Z,10.30
2019-02-28T21:12:40.621Z,10.20
2019-02-28T21:15:12.549Z,9.27
2019-02-28T21:17:40.937Z,10.13
2019-02-28T21:20:12.342Z,11.40
2019-02-28T21:22:40.831Z,11.30
2019-02-28T21:25:11.619Z,11.00
2019-02-28T21:27:59.348Z,8.50
2019-02-28T21:30:28.095Z,4.73
2019-02-28T21:32:56.472Z,8.27
2019-02-28T21:35:25.599Z,9.40
2019-02-28T21:37:53.992Z,8.33
2019-02-28T21:40:23.236Z,7.10
2019-02-28T21:42:51.623Z,5.13
2019-02-28T21:45:26.873Z,7.60
2019-02-28T21:47:55.251Z,5.13
2019-02-28T21:50:24.071Z,3.67
2019-02-28T21:52:52.460Z,4.30
2019-02-28T21:55:20.900Z,7.33
2019-02-28T21:57:49.284Z,3.40
2019-02-28T22:00:26.576Z,6.33
2019-02-28T22:02:54.959Z,3.20
2019-02-28T22:05:23.336Z,3.70
2019-02-28T22:07:51.707Z,3.87
2019-02-28T22:10:20.103Z,2.77
2019-02-28T22:12:48.465Z,5.23
2019-02-28T22:15:19.924Z,4.47
2019-02-28T22:17:48.367Z,6.03
2019-02-28T22:20:16.897Z,6.03
2019-02-28T22:23:04.624Z,6.40
2019-02-28T22:25:32.979Z,4.23
2019-02-28T22:28:01.363Z,5.13
2019-02-28T22:30:43.063Z,5.10
2019-02-28T22:33:29.796Z,6.30
2019-02-28T22:36:08.988Z,4.73
2019-02-28T22:38:37.365Z,4.90
2019-02-28T22:41:05.747Z,3.87
2019-02-28T22:43:34.126Z,3.67
2019-02-28T22:46:02.508Z,4.47
2019-02-28T22:48:30.888Z,4.50
2019-02-28T22:50:59.268Z,3.03
2019-02-28T22:53:27.670Z,3.10
2019-02-28T22:55:56.044Z,3.47
2019-02-28T22:58:24.436Z,4.87
2019-02-28T23:01:00.662Z,2.17
2019-02-28T23:03:31.347Z,4.33
2019-02-28T23:05:59.723Z,5.07
2019-02-28T23:08:28.116Z,4.80
2019-02-28T23:10:56.799Z,4.73
2019-02-28T23:13:25.251Z,4.70
2019-02-28T23:15:53.631Z,2.40
2019-02-28T23:18:22.158Z,3.57
2019-02-28T23:20:50.608Z,5.20
2019-02-28T23:23:19.004Z,4.10
2019-02-28T23:25:47.392Z,5.37
2019-02-28T23:28:30.932Z,4.87
2019-02-28T23:31:19.101Z,4.93
2019-02-28T23:33:47.477Z,5.23
2019-02-28T23:36:15.847Z,4.00
2019-02-28T23:38:44.229Z,3.10
2019-02-28T23:41:12.616Z,4.40
2019-02-28T23:43:40.980Z,4.67
2019-02-28T23:46:09.372Z,5.27
2019-02-28T23:48:37.752Z,3.10
2019-02-28T23:51:18.313Z,3.83
2019-02-28T23:53:46.683Z,4.93
2019-02-28T23:56:15.067Z,2.67
2019-02-28T23:58:43.448Z,4.20
